メインページ
METAR-TAF:

METAR-TAF

空港 :

ヤップ州, Yap Island, ミクロネシア

ヤップ国際空港

緯度: 09-29N, 経度: 138-05E, 海抜: 28m

現時点の気象観測

当レポートは51分前の13:53(UTC)に作成
変向風 4kt
気温 28°C
湿度 84%
気圧 1010 hPa
視程: 19.3km
高度1600ftの雲はほとんどない
高度30000ftの千切れ雲あり

METAR: PTYA 271353Z VRB04KT 12SM FEW016 BKN300 28/25 A2982 RMK SLP100 T02780248

時間: 00:44 (14:44 UTC)

予報

当レポートは3時間5分前の11:39(UTC)に作成
予報は27日の 12時(UTC)から 28日の 12時(UTC)まで有効
変向風 4kt
視程: 10km
高度1600ftの雲は散在している
高度12000ftの千切れ雲あり
近辺でにわか雨

TAF: PTYA 271139Z 2712/2812 VRB04KT P6SM VCSH SCT016 BKN120

4,000以上の空港の気象観測と天気予報(METAR報とTAF報)

利用可能な観測所は地図上に黄色い丸と赤い丸で示す。

丸の上にカーソルを重ねると観測所名を参照できる。

次にクリックすると気象観測と天気予報を参照できる。

マップの切り替え:黒色「×」印の緑ボタンをクリックして拡大、「-」印の緑ボタンをクリックして縮小、緑色の三角印をクリックして隣りの地図に切り替え


METAR-TAF: